sensor_id;sensor_type;location;lat;lon;timestamp;temperature;humidity
52127;DHT22;38120;53.176;6.614;2022-08-19T00:00:21;15.70;99.90
52127;DHT22;38120;53.176;6.614;2022-08-19T00:02:47;15.70;99.90
52127;DHT22;38120;53.176;6.614;2022-08-19T00:05:13;15.70;99.90
52127;DHT22;38120;53.176;6.614;2022-08-19T00:07:41;15.70;99.90
52127;DHT22;38120;53.176;6.614;2022-08-19T00:10:11;15.70;99.90
52127;DHT22;38120;53.176;6.614;2022-08-19T00:12:37;15.70;99.90
52127;DHT22;38120;53.176;6.614;2022-08-19T00:15:06;15.60;99.90
52127;DHT22;38120;53.176;6.614;2022-08-19T00:17:32;15.60;99.90
52127;DHT22;38120;53.176;6.614;2022-08-19T00:19:58;15.60;99.90
52127;DHT22;38120;53.176;6.614;2022-08-19T00:22:23;15.60;99.90
52127;DHT22;38120;53.176;6.614;2022-08-19T00:24:49;15.50;99.90
52127;DHT22;38120;53.176;6.614;2022-08-19T00:27:15;15.60;99.90
52127;DHT22;38120;53.176;6.614;2022-08-19T00:29:41;15.70;99.90
52127;DHT22;38120;53.176;6.614;2022-08-19T00:32:07;15.50;99.90
52127;DHT22;38120;53.176;6.614;2022-08-19T00:34:33;15.40;99.90
52127;DHT22;38120;53.176;6.614;2022-08-19T00:36:58;15.40;99.90
52127;DHT22;38120;53.176;6.614;2022-08-19T00:39:25;15.40;99.90
52127;DHT22;38120;53.176;6.614;2022-08-19T00:41:51;15.30;99.90
52127;DHT22;38120;53.176;6.614;2022-08-19T00:44:23;15.30;99.90
52127;DHT22;38120;53.176;6.614;2022-08-19T00:46:50;15.30;99.90
52127;DHT22;38120;53.176;6.614;2022-08-19T00:49:34;15.30;99.90
52127;DHT22;38120;53.176;6.614;2022-08-19T00:52:13;15.10;99.90
52127;DHT22;38120;53.176;6.614;2022-08-19T00:54:40;15.20;99.90
52127;DHT22;38120;53.176;6.614;2022-08-19T00:57:10;15.20;99.90
52127;DHT22;38120;53.176;6.614;2022-08-19T00:59:40;15.10;99.90
52127;DHT22;38120;53.176;6.614;2022-08-19T01:02:06;15.10;99.90
52127;DHT22;38120;53.176;6.614;2022-08-19T01:04:33;15.20;99.90
52127;DHT22;38120;53.176;6.614;2022-08-19T01:06:59;15.00;99.90
52127;DHT22;38120;53.176;6.614;2022-08-19T01:09:25;15.00;99.90
52127;DHT22;38120;53.176;6.614;2022-08-19T01:11:51;15.00;99.90
52127;DHT22;38120;53.176;6.614;2022-08-19T01:14:17;15.00;99.90
52127;DHT22;38120;53.176;6.614;2022-08-19T01:16:43;14.90;99.90
52127;DHT22;38120;53.176;6.614;2022-08-19T01:19:18;14.90;99.90
52127;DHT22;38120;53.176;6.614;2022-08-19T01:21:54;14.90;99.90
52127;DHT22;38120;53.176;6.614;2022-08-19T01:24:20;14.90;99.90
52127;DHT22;38120;53.176;6.614;2022-08-19T01:26:47;14.80;99.90
52127;DHT22;38120;53.176;6.614;2022-08-19T01:29:13;14.90;99.90
52127;DHT22;38120;53.176;6.614;2022-08-19T01:31:39;14.80;99.90
52127;DHT22;38120;53.176;6.614;2022-08-19T01:34:06;14.80;99.90
52127;DHT22;38120;53.176;6.614;2022-08-19T01:36:35;14.80;99.90
52127;DHT22;38120;53.176;6.614;2022-08-19T01:39:05;14.80;99.90
52127;DHT22;38120;53.176;6.614;2022-08-19T01:41:31;14.80;99.90
52127;DHT22;38120;53.176;6.614;2022-08-19T01:43:57;14.80;99.90
52127;DHT22;38120;53.176;6.614;2022-08-19T01:46:24;14.80;99.90
52127;DHT22;38120;53.176;6.614;2022-08-19T01:48:50;14.80;99.90
52127;DHT22;38120;53.176;6.614;2022-08-19T01:51:16;14.80;99.90
52127;DHT22;38120;53.176;6.614;2022-08-19T01:53:42;14.80;99.90
52127;DHT22;38120;53.176;6.614;2022-08-19T01:56:08;14.80;99.90
52127;DHT22;38120;53.176;6.614;2022-08-19T01:58:41;14.80;99.90
52127;DHT22;38120;53.176;6.614;2022-08-19T02:01:10;14.80;99.90
52127;DHT22;38120;53.176;6.614;2022-08-19T02:03:36;14.80;99.90
52127;DHT22;38120;53.176;6.614;2022-08-19T02:06:02;14.80;99.90
52127;DHT22;38120;53.176;6.614;2022-08-19T02:08:29;14.80;99.90
52127;DHT22;38120;53.176;6.614;2022-08-19T02:10:56;14.70;99.90
52127;DHT22;38120;53.176;6.614;2022-08-19T02:13:23;14.80;99.90
52127;DHT22;38120;53.176;6.614;2022-08-19T02:15:49;14.70;99.90
52127;DHT22;38120;53.176;6.614;2022-08-19T02:18:15;14.80;99.90
52127;DHT22;38120;53.176;6.614;2022-08-19T02:20:42;14.80;99.90
52127;DHT22;38120;53.176;6.614;2022-08-19T02:23:08;14.80;99.90
52127;DHT22;38120;53.176;6.614;2022-08-19T02:25:35;14.80;99.90
52127;DHT22;38120;53.176;6.614;2022-08-19T02:28:01;14.80;99.90
52127;DHT22;38120;53.176;6.614;2022-08-19T02:30:26;14.80;99.90
52127;DHT22;38120;53.176;6.614;2022-08-19T02:32:52;14.90;99.90
52127;DHT22;38120;53.176;6.614;2022-08-19T02:35:18;14.90;99.90
52127;DHT22;38120;53.176;6.614;2022-08-19T02:37:44;14.90;99.90
52127;DHT22;38120;53.176;6.614;2022-08-19T02:40:30;14.90;99.90
52127;DHT22;38120;53.176;6.614;2022-08-19T02:42:57;14.90;99.90
52127;DHT22;38120;53.176;6.614;2022-08-19T02:45:23;14.90;99.90
52127;DHT22;38120;53.176;6.614;2022-08-19T02:47:48;14.80;99.90
52127;DHT22;38120;53.176;6.614;2022-08-19T02:50:14;14.90;99.90
52127;DHT22;38120;53.176;6.614;2022-08-19T02:52:40;14.90;99.90
52127;DHT22;38120;53.176;6.614;2022-08-19T02:55:06;14.90;99.90
52127;DHT22;38120;53.176;6.614;2022-08-19T02:57:32;14.90;99.90
52127;DHT22;38120;53.176;6.614;2022-08-19T02:59:58;14.80;99.90
52127;DHT22;38120;53.176;6.614;2022-08-19T03:02:24;14.80;99.90
52127;DHT22;38120;53.176;6.614;2022-08-19T03:04:50;14.80;99.90
52127;DHT22;38120;53.176;6.614;2022-08-19T03:07:17;14.80;99.90
52127;DHT22;38120;53.176;6.614;2022-08-19T03:09:44;14.80;99.90
52127;DHT22;38120;53.176;6.614;2022-08-19T03:12:10;14.90;99.90
52127;DHT22;38120;53.176;6.614;2022-08-19T03:14:37;14.60;99.90
52127;DHT22;38120;53.176;6.614;2022-08-19T03:17:04;14.60;99.90
52127;DHT22;38120;53.176;6.614;2022-08-19T03:19:30;14.70;99.90
52127;DHT22;38120;53.176;6.614;2022-08-19T03:21:57;14.60;99.90
52127;DHT22;38120;53.176;6.614;2022-08-19T03:24:23;14.60;99.90
52127;DHT22;38120;53.176;6.614;2022-08-19T03:26:52;14.60;99.90
52127;DHT22;38120;53.176;6.614;2022-08-19T03:29:20;14.60;99.90
52127;DHT22;38120;53.176;6.614;2022-08-19T03:31:46;14.60;99.90
52127;DHT22;38120;53.176;6.614;2022-08-19T03:34:14;14.60;99.90
52127;DHT22;38120;53.176;6.614;2022-08-19T03:36:40;14.50;99.90
52127;DHT22;38120;53.176;6.614;2022-08-19T03:39:06;14.50;99.90
52127;DHT22;38120;53.176;6.614;2022-08-19T03:41:37;14.50;99.90
52127;DHT22;38120;53.176;6.614;2022-08-19T03:44:03;14.60;99.90
52127;DHT22;38120;53.176;6.614;2022-08-19T03:46:31;14.50;99.90
52127;DHT22;38120;53.176;6.614;2022-08-19T03:48:59;14.60;99.90
52127;DHT22;38120;53.176;6.614;2022-08-19T03:51:33;14.50;99.90
52127;DHT22;38120;53.176;6.614;2022-08-19T03:54:02;14.60;99.90
52127;DHT22;38120;53.176;6.614;2022-08-19T03:56:29;14.60;99.90
52127;DHT22;38120;53.176;6.614;2022-08-19T03:58:56;14.60;99.90
52127;DHT22;38120;53.176;6.614;2022-08-19T04:01:24;14.50;99.90
52127;DHT22;38120;53.176;6.614;2022-08-19T04:03:52;14.60;99.90
52127;DHT22;38120;53.176;6.614;2022-08-19T04:06:24;14.50;99.90
52127;DHT22;38120;53.176;6.614;2022-08-19T04:08:52;14.60;99.90
52127;DHT22;38120;53.176;6.614;2022-08-19T04:11:24;14.50;99.90
52127;DHT22;38120;53.176;6.614;2022-08-19T04:13:51;14.50;99.90
52127;DHT22;38120;53.176;6.614;2022-08-19T04:16:19;14.60;99.90
52127;DHT22;38120;53.176;6.614;2022-08-19T04:18:48;14.60;99.90
52127;DHT22;38120;53.176;6.614;2022-08-19T04:21:20;14.50;99.90
52127;DHT22;38120;53.176;6.614;2022-08-19T04:23:46;14.50;99.90
52127;DHT22;38120;53.176;6.614;2022-08-19T04:26:21;14.50;99.90
52127;DHT22;38120;53.176;6.614;2022-08-19T04:28:48;14.50;99.90
52127;DHT22;38120;53.176;6.614;2022-08-19T04:31:17;14.50;99.90
52127;DHT22;38120;53.176;6.614;2022-08-19T04:33:43;14.50;99.90
52127;DHT22;38120;53.176;6.614;2022-08-19T04:36:20;14.50;99.90
52127;DHT22;38120;53.176;6.614;2022-08-19T04:38:53;14.50;99.90
52127;DHT22;38120;53.176;6.614;2022-08-19T04:41:19;14.60;99.90
52127;DHT22;38120;53.176;6.614;2022-08-19T04:44:04;14.50;99.90
52127;DHT22;38120;53.176;6.614;2022-08-19T04:46:30;14.60;99.90
52127;DHT22;38120;53.176;6.614;2022-08-19T04:48:58;14.60;99.90
52127;DHT22;38120;53.176;6.614;2022-08-19T04:51:25;14.70;99.90
52127;DHT22;38120;53.176;6.614;2022-08-19T04:53:51;14.60;99.90
52127;DHT22;38120;53.176;6.614;2022-08-19T04:56:19;14.60;99.90
52127;DHT22;38120;53.176;6.614;2022-08-19T04:58:47;14.60;99.90
52127;DHT22;38120;53.176;6.614;2022-08-19T05:01:24;14.60;99.90
52127;DHT22;38120;53.176;6.614;2022-08-19T05:03:50;14.60;99.90
52127;DHT22;38120;53.176;6.614;2022-08-19T05:06:19;14.60;99.90
52127;DHT22;38120;53.176;6.614;2022-08-19T05:08:46;14.60;99.90
52127;DHT22;38120;53.176;6.614;2022-08-19T05:11:15;14.70;99.90
52127;DHT22;38120;53.176;6.614;2022-08-19T05:13:43;14.70;99.90
52127;DHT22;38120;53.176;6.614;2022-08-19T05:16:11;14.70;99.90
52127;DHT22;38120;53.176;6.614;2022-08-19T05:18:37;14.80;99.90
52127;DHT22;38120;53.176;6.614;2022-08-19T05:21:22;14.80;99.90
52127;DHT22;38120;53.176;6.614;2022-08-19T05:24:07;14.80;99.90
52127;DHT22;38120;53.176;6.614;2022-08-19T05:26:41;14.90;99.90
52127;DHT22;38120;53.176;6.614;2022-08-19T05:29:08;14.90;99.90
52127;DHT22;38120;53.176;6.614;2022-08-19T05:31:35;15.00;99.90
52127;DHT22;38120;53.176;6.614;2022-08-19T05:34:01;15.00;99.90
52127;DHT22;38120;53.176;6.614;2022-08-19T05:36:32;15.10;99.90
52127;DHT22;38120;53.176;6.614;2022-08-19T05:38:59;15.20;99.90
52127;DHT22;38120;53.176;6.614;2022-08-19T05:41:25;15.30;99.90
52127;DHT22;38120;53.176;6.614;2022-08-19T05:44:00;15.40;99.90
52127;DHT22;38120;53.176;6.614;2022-08-19T05:46:26;15.50;99.90
52127;DHT22;38120;53.176;6.614;2022-08-19T05:48:52;15.50;99.90
52127;DHT22;38120;53.176;6.614;2022-08-19T05:51:22;15.60;99.90
52127;DHT22;38120;53.176;6.614;2022-08-19T05:53:48;15.80;99.90
52127;DHT22;38120;53.176;6.614;2022-08-19T05:56:16;15.90;99.90
52127;DHT22;38120;53.176;6.614;2022-08-19T05:58:43;15.90;99.90
52127;DHT22;38120;53.176;6.614;2022-08-19T06:01:13;16.10;99.90
52127;DHT22;38120;53.176;6.614;2022-08-19T06:03:40;16.10;99.90
52127;DHT22;38120;53.176;6.614;2022-08-19T06:06:07;16.30;99.90
52127;DHT22;38120;53.176;6.614;2022-08-19T06:08:34;16.30;99.90
52127;DHT22;38120;53.176;6.614;2022-08-19T06:11:25;16.40;99.90
52127;DHT22;38120;53.176;6.614;2022-08-19T06:14:01;16.60;99.90
52127;DHT22;38120;53.176;6.614;2022-08-19T06:16:27;16.70;99.90
52127;DHT22;38120;53.176;6.614;2022-08-19T06:18:53;16.80;99.90
52127;DHT22;38120;53.176;6.614;2022-08-19T06:21:21;16.90;99.90
52127;DHT22;38120;53.176;6.614;2022-08-19T06:23:48;17.00;99.90
52127;DHT22;38120;53.176;6.614;2022-08-19T06:26:15;17.10;99.90
52127;DHT22;38120;53.176;6.614;2022-08-19T06:28:41;17.30;99.90
52127;DHT22;38120;53.176;6.614;2022-08-19T06:31:10;17.40;99.90
52127;DHT22;38120;53.176;6.614;2022-08-19T06:33:36;17.50;99.90
52127;DHT22;38120;53.176;6.614;2022-08-19T06:36:03;17.60;99.90
52127;DHT22;38120;53.176;6.614;2022-08-19T06:38:29;17.70;99.90
52127;DHT22;38120;53.176;6.614;2022-08-19T06:41:03;17.80;99.90
52127;DHT22;38120;53.176;6.614;2022-08-19T06:43:29;18.00;99.90
52127;DHT22;38120;53.176;6.614;2022-08-19T06:45:55;18.00;99.90
52127;DHT22;38120;53.176;6.614;2022-08-19T06:48:21;18.10;99.90
52127;DHT22;38120;53.176;6.614;2022-08-19T06:50:46;18.30;99.90
52127;DHT22;38120;53.176;6.614;2022-08-19T06:53:15;18.40;99.90
52127;DHT22;38120;53.176;6.614;2022-08-19T06:55:40;18.40;99.90
52127;DHT22;38120;53.176;6.614;2022-08-19T06:58:06;18.60;99.90
52127;DHT22;38120;53.176;6.614;2022-08-19T07:00:33;18.70;99.90
52127;DHT22;38120;53.176;6.614;2022-08-19T07:02:59;18.80;99.90
52127;DHT22;38120;53.176;6.614;2022-08-19T07:05:25;18.80;99.90
52127;DHT22;38120;53.176;6.614;2022-08-19T07:07:51;19.00;99.90
52127;DHT22;38120;53.176;6.614;2022-08-19T07:10:17;19.10;99.90
52127;DHT22;38120;53.176;6.614;2022-08-19T07:12:44;19.10;99.90
52127;DHT22;38120;53.176;6.614;2022-08-19T07:15:11;19.30;99.90
52127;DHT22;38120;53.176;6.614;2022-08-19T07:17:38;19.40;99.90
52127;DHT22;38120;53.176;6.614;2022-08-19T07:20:06;19.50;99.90
52127;DHT22;38120;53.176;6.614;2022-08-19T07:22:35;19.60;99.90
52127;DHT22;38120;53.176;6.614;2022-08-19T07:25:03;19.70;99.90
52127;DHT22;38120;53.176;6.614;2022-08-19T07:27:29;19.90;99.90
52127;DHT22;38120;53.176;6.614;2022-08-19T07:29:55;20.00;99.90
52127;DHT22;38120;53.176;6.614;2022-08-19T07:32:20;20.00;99.90
52127;DHT22;38120;53.176;6.614;2022-08-19T07:34:46;20.10;99.90
52127;DHT22;38120;53.176;6.614;2022-08-19T07:37:12;20.20;99.90
52127;DHT22;38120;53.176;6.614;2022-08-19T07:39:38;20.30;99.90
52127;DHT22;38120;53.176;6.614;2022-08-19T07:42:07;20.40;99.90
52127;DHT22;38120;53.176;6.614;2022-08-19T07:44:34;20.50;99.90
52127;DHT22;38120;53.176;6.614;2022-08-19T07:47:00;20.60;99.90
52127;DHT22;38120;53.176;6.614;2022-08-19T07:49:27;20.70;99.90
52127;DHT22;38120;53.176;6.614;2022-08-19T07:51:54;20.70;99.90
52127;DHT22;38120;53.176;6.614;2022-08-19T07:54:22;20.80;99.90
52127;DHT22;38120;53.176;6.614;2022-08-19T07:56:48;20.90;99.90
52127;DHT22;38120;53.176;6.614;2022-08-19T07:59:17;20.90;99.90
52127;DHT22;38120;53.176;6.614;2022-08-19T08:01:43;21.10;99.90
52127;DHT22;38120;53.176;6.614;2022-08-19T08:04:09;21.20;99.90
52127;DHT22;38120;53.176;6.614;2022-08-19T08:06:54;21.30;99.90
52127;DHT22;38120;53.176;6.614;2022-08-19T08:09:42;21.40;99.90
52127;DHT22;38120;53.176;6.614;2022-08-19T08:12:18;21.50;99.90
52127;DHT22;38120;53.176;6.614;2022-08-19T08:14:50;21.60;99.90
52127;DHT22;38120;53.176;6.614;2022-08-19T08:17:18;21.60;99.90
52127;DHT22;38120;53.176;6.614;2022-08-19T08:19:45;21.80;99.90
52127;DHT22;38120;53.176;6.614;2022-08-19T08:22:13;21.90;99.90
52127;DHT22;38120;53.176;6.614;2022-08-19T08:25:08;22.00;99.90
52127;DHT22;38120;53.176;6.614;2022-08-19T08:27:43;22.00;99.90
52127;DHT22;38120;53.176;6.614;2022-08-19T08:30:16;22.10;99.90
52127;DHT22;38120;53.176;6.614;2022-08-19T08:32:43;22.20;99.90
52127;DHT22;38120;53.176;6.614;2022-08-19T08:35:13;22.30;99.90
52127;DHT22;38120;53.176;6.614;2022-08-19T08:37:39;22.30;99.90
52127;DHT22;38120;53.176;6.614;2022-08-19T08:40:10;22.40;99.90
52127;DHT22;38120;53.176;6.614;2022-08-19T08:43:03;22.30;99.90
52127;DHT22;38120;53.176;6.614;2022-08-19T08:45:33;22.40;99.90
52127;DHT22;38120;53.176;6.614;2022-08-19T08:48:04;22.50;99.90
52127;DHT22;38120;53.176;6.614;2022-08-19T08:50:43;22.50;99.90
52127;DHT22;38120;53.176;6.614;2022-08-19T08:53:13;22.70;99.90
52127;DHT22;38120;53.176;6.614;2022-08-19T08:55:40;22.70;99.90
52127;DHT22;38120;53.176;6.614;2022-08-19T08:58:14;22.80;99.90
52127;DHT22;38120;53.176;6.614;2022-08-19T09:00:45;22.90;99.90
52127;DHT22;38120;53.176;6.614;2022-08-19T09:03:22;23.00;99.90
52127;DHT22;38120;53.176;6.614;2022-08-19T09:06:03;23.20;99.90
52127;DHT22;38120;53.176;6.614;2022-08-19T09:11:10;23.20;99.90
52127;DHT22;38120;53.176;6.614;2022-08-19T09:16:21;23.20;99.90
52127;DHT22;38120;53.176;6.614;2022-08-19T09:18:54;23.20;99.90
52127;DHT22;38120;53.176;6.614;2022-08-19T09:21:23;23.40;99.90
52127;DHT22;38120;53.176;6.614;2022-08-19T09:23:51;23.40;99.90
52127;DHT22;38120;53.176;6.614;2022-08-19T09:26:20;23.50;99.90
52127;DHT22;38120;53.176;6.614;2022-08-19T09:28:51;23.50;99.90
52127;DHT22;38120;53.176;6.614;2022-08-19T09:31:20;23.60;99.90
52127;DHT22;38120;53.176;6.614;2022-08-19T09:33:47;23.80;99.90
52127;DHT22;38120;53.176;6.614;2022-08-19T09:36:20;23.70;99.90
52127;DHT22;38120;53.176;6.614;2022-08-19T09:38:47;23.80;99.90
52127;DHT22;38120;53.176;6.614;2022-08-19T09:41:19;23.90;99.90
52127;DHT22;38120;53.176;6.614;2022-08-19T09:43:48;24.10;99.90
52127;DHT22;38120;53.176;6.614;2022-08-19T09:46:14;24.20;99.90
52127;DHT22;38120;53.176;6.614;2022-08-19T09:48:42;24.30;99.90
52127;DHT22;38120;53.176;6.614;2022-08-19T09:51:15;24.40;99.90
52127;DHT22;38120;53.176;6.614;2022-08-19T09:53:42;24.50;99.90
52127;DHT22;38120;53.176;6.614;2022-08-19T09:56:09;24.50;99.90
52127;DHT22;38120;53.176;6.614;2022-08-19T09:58:36;24.60;99.90
52127;DHT22;38120;53.176;6.614;2022-08-19T10:01:03;24.70;99.90
52127;DHT22;38120;53.176;6.614;2022-08-19T10:03:30;24.60;99.90
52127;DHT22;38120;53.176;6.614;2022-08-19T10:05:58;24.60;99.90
52127;DHT22;38120;53.176;6.614;2022-08-19T10:08:29;24.70;99.90
52127;DHT22;38120;53.176;6.614;2022-08-19T10:10:56;24.80;99.90
52127;DHT22;38120;53.176;6.614;2022-08-19T10:13:24;24.80;99.90
52127;DHT22;38120;53.176;6.614;2022-08-19T10:15:56;24.80;99.90
52127;DHT22;38120;53.176;6.614;2022-08-19T10:18:23;25.10;99.90
52127;DHT22;38120;53.176;6.614;2022-08-19T10:20:50;25.00;99.90
52127;DHT22;38120;53.176;6.614;2022-08-19T10:23:19;25.20;99.90
52127;DHT22;38120;53.176;6.614;2022-08-19T10:25:45;25.40;99.90
52127;DHT22;38120;53.176;6.614;2022-08-19T10:28:11;25.50;99.90
52127;DHT22;38120;53.176;6.614;2022-08-19T10:30:41;25.50;99.90
52127;DHT22;38120;53.176;6.614;2022-08-19T10:33:07;25.60;99.90
52127;DHT22;38120;53.176;6.614;2022-08-19T10:35:33;25.70;99.90
52127;DHT22;38120;53.176;6.614;2022-08-19T10:37:58;25.50;99.90
52127;DHT22;38120;53.176;6.614;2022-08-19T10:40:27;25.60;99.90
52127;DHT22;38120;53.176;6.614;2022-08-19T10:42:53;25.50;99.90
52127;DHT22;38120;53.176;6.614;2022-08-19T10:45:19;25.60;99.90
52127;DHT22;38120;53.176;6.614;2022-08-19T10:47:48;25.70;99.90
52127;DHT22;38120;53.176;6.614;2022-08-19T10:50:14;25.40;99.90
52127;DHT22;38120;53.176;6.614;2022-08-19T10:53:04;25.10;99.90
52127;DHT22;38120;53.176;6.614;2022-08-19T10:55:30;25.10;99.90
52127;DHT22;38120;53.176;6.614;2022-08-19T10:58:16;25.00;99.90
52127;DHT22;38120;53.176;6.614;2022-08-19T11:00:43;25.20;99.90
52127;DHT22;38120;53.176;6.614;2022-08-19T11:03:16;25.50;99.90
52127;DHT22;38120;53.176;6.614;2022-08-19T11:05:41;25.70;99.90
52127;DHT22;38120;53.176;6.614;2022-08-19T11:08:08;25.70;99.90
52127;DHT22;38120;53.176;6.614;2022-08-19T11:10:40;26.00;99.90
52127;DHT22;38120;53.176;6.614;2022-08-19T11:13:06;26.10;99.90
52127;DHT22;38120;53.176;6.614;2022-08-19T11:15:32;26.20;99.90
52127;DHT22;38120;53.176;6.614;2022-08-19T11:17:58;26.10;99.90
52127;DHT22;38120;53.176;6.614;2022-08-19T11:20:24;26.20;99.90
52127;DHT22;38120;53.176;6.614;2022-08-19T11:22:52;26.20;99.90
52127;DHT22;38120;53.176;6.614;2022-08-19T11:25:19;26.40;99.90
52127;DHT22;38120;53.176;6.614;2022-08-19T11:27:48;26.40;99.90
52127;DHT22;38120;53.176;6.614;2022-08-19T11:30:16;26.50;99.90
52127;DHT22;38120;53.176;6.614;2022-08-19T11:32:42;26.50;99.90
52127;DHT22;38120;53.176;6.614;2022-08-19T11:35:08;26.10;99.90
52127;DHT22;38120;53.176;6.614;2022-08-19T11:37:34;26.40;99.90
52127;DHT22;38120;53.176;6.614;2022-08-19T11:40:04;26.50;99.90
52127;DHT22;38120;53.176;6.614;2022-08-19T11:42:30;26.50;99.90
52127;DHT22;38120;53.176;6.614;2022-08-19T11:45:19;26.50;99.90
52127;DHT22;38120;53.176;6.614;2022-08-19T11:47:44;26.60;99.90
52127;DHT22;38120;53.176;6.614;2022-08-19T11:50:11;26.70;99.90
52127;DHT22;38120;53.176;6.614;2022-08-19T11:52:37;27.10;99.90
52127;DHT22;38120;53.176;6.614;2022-08-19T11:55:03;27.40;99.90
52127;DHT22;38120;53.176;6.614;2022-08-19T11:57:29;27.20;99.90
52127;DHT22;38120;53.176;6.614;2022-08-19T11:59:54;26.50;99.90
52127;DHT22;38120;53.176;6.614;2022-08-19T12:02:20;26.30;99.90
52127;DHT22;38120;53.176;6.614;2022-08-19T12:04:47;26.00;99.90
52127;DHT22;38120;53.176;6.614;2022-08-19T12:07:13;25.90;99.90
52127;DHT22;38120;53.176;6.614;2022-08-19T12:09:38;25.80;99.90
52127;DHT22;38120;53.176;6.614;2022-08-19T12:12:05;25.90;99.90
52127;DHT22;38120;53.176;6.614;2022-08-19T12:14:34;25.80;99.90
52127;DHT22;38120;53.176;6.614;2022-08-19T12:17:00;25.70;99.90
52127;DHT22;38120;53.176;6.614;2022-08-19T12:19:27;25.70;99.90
52127;DHT22;38120;53.176;6.614;2022-08-19T12:21:58;25.60;99.90
52127;DHT22;38120;53.176;6.614;2022-08-19T12:24:26;25.60;99.90
52127;DHT22;38120;53.176;6.614;2022-08-19T12:26:51;25.60;99.90
52127;DHT22;38120;53.176;6.614;2022-08-19T12:29:18;25.50;99.90
52127;DHT22;38120;53.176;6.614;2022-08-19T12:31:44;25.50;99.90
52127;DHT22;38120;53.176;6.614;2022-08-19T12:34:09;25.50;99.90
52127;DHT22;38120;53.176;6.614;2022-08-19T12:36:35;25.50;99.90
52127;DHT22;38120;53.176;6.614;2022-08-19T12:39:01;25.50;99.90
52127;DHT22;38120;53.176;6.614;2022-08-19T12:41:26;25.70;99.90
52127;DHT22;38120;53.176;6.614;2022-08-19T12:43:52;25.60;99.90
52127;DHT22;38120;53.176;6.614;2022-08-19T12:46:18;25.50;99.90
52127;DHT22;38120;53.176;6.614;2022-08-19T12:48:44;25.50;99.90
52127;DHT22;38120;53.176;6.614;2022-08-19T12:51:14;25.50;99.90
52127;DHT22;38120;53.176;6.614;2022-08-19T12:53:41;25.60;99.90
52127;DHT22;38120;53.176;6.614;2022-08-19T12:56:08;25.70;99.90
52127;DHT22;38120;53.176;6.614;2022-08-19T12:58:34;25.70;99.90
52127;DHT22;38120;53.176;6.614;2022-08-19T13:01:13;25.70;99.90
52127;DHT22;38120;53.176;6.614;2022-08-19T13:03:39;25.70;99.90
52127;DHT22;38120;53.176;6.614;2022-08-19T13:06:06;25.70;99.90
52127;DHT22;38120;53.176;6.614;2022-08-19T13:08:32;25.70;99.90
52127;DHT22;38120;53.176;6.614;2022-08-19T13:10:57;25.70;99.90
52127;DHT22;38120;53.176;6.614;2022-08-19T13:13:31;25.70;99.90
52127;DHT22;38120;53.176;6.614;2022-08-19T13:15:59;25.70;99.90
52127;DHT22;38120;53.176;6.614;2022-08-19T13:18:27;25.70;99.90
52127;DHT22;38120;53.176;6.614;2022-08-19T13:20:52;25.60;99.90
52127;DHT22;38120;53.176;6.614;2022-08-19T13:23:18;25.50;99.90
52127;DHT22;38120;53.176;6.614;2022-08-19T13:25:44;25.50;99.90
52127;DHT22;38120;53.176;6.614;2022-08-19T13:28:09;25.60;99.90
52127;DHT22;38120;53.176;6.614;2022-08-19T13:30:35;25.40;99.90
52127;DHT22;38120;53.176;6.614;2022-08-19T13:33:19;25.40;99.90
52127;DHT22;38120;53.176;6.614;2022-08-19T13:35:49;25.30;99.90
52127;DHT22;38120;53.176;6.614;2022-08-19T13:38:20;25.30;99.90
52127;DHT22;38120;53.176;6.614;2022-08-19T13:40:46;25.20;99.90
52127;DHT22;38120;53.176;6.614;2022-08-19T13:43:11;25.30;99.90
52127;DHT22;38120;53.176;6.614;2022-08-19T13:45:37;25.50;99.90
52127;DHT22;38120;53.176;6.614;2022-08-19T13:48:04;25.50;99.90
52127;DHT22;38120;53.176;6.614;2022-08-19T13:50:37;25.40;99.90
52127;DHT22;38120;53.176;6.614;2022-08-19T13:53:03;25.10;99.90
52127;DHT22;38120;53.176;6.614;2022-08-19T13:55:29;24.90;99.90
52127;DHT22;38120;53.176;6.614;2022-08-19T13:57:58;24.70;99.90
52127;DHT22;38120;53.176;6.614;2022-08-19T14:00:26;24.70;99.90
52127;DHT22;38120;53.176;6.614;2022-08-19T14:02:54;24.60;99.90
52127;DHT22;38120;53.176;6.614;2022-08-19T14:05:21;24.40;99.90
52127;DHT22;38120;53.176;6.614;2022-08-19T14:07:47;24.40;99.90
52127;DHT22;38120;53.176;6.614;2022-08-19T14:10:14;24.30;99.90
52127;DHT22;38120;53.176;6.614;2022-08-19T14:12:40;24.20;99.90
52127;DHT22;38120;53.176;6.614;2022-08-19T14:15:08;24.10;99.90
52127;DHT22;38120;53.176;6.614;2022-08-19T14:17:34;24.20;99.90
52127;DHT22;38120;53.176;6.614;2022-08-19T14:20:03;24.10;99.90
52127;DHT22;38120;53.176;6.614;2022-08-19T14:22:39;24.10;99.90
52127;DHT22;38120;53.176;6.614;2022-08-19T14:25:08;24.10;99.90
52127;DHT22;38120;53.176;6.614;2022-08-19T14:27:35;23.90;99.90
52127;DHT22;38120;53.176;6.614;2022-08-19T14:30:03;23.90;99.90
52127;DHT22;38120;53.176;6.614;2022-08-19T14:32:28;23.80;99.90
52127;DHT22;38120;53.176;6.614;2022-08-19T14:34:54;23.70;99.90
52127;DHT22;38120;53.176;6.614;2022-08-19T14:37:20;23.70;99.90
52127;DHT22;38120;53.176;6.614;2022-08-19T14:39:47;23.70;99.90
52127;DHT22;38120;53.176;6.614;2022-08-19T14:42:13;23.80;99.90
52127;DHT22;38120;53.176;6.614;2022-08-19T14:44:42;23.90;99.90
52127;DHT22;38120;53.176;6.614;2022-08-19T14:47:08;23.90;99.90
52127;DHT22;38120;53.176;6.614;2022-08-19T14:49:34;24.00;99.90
52127;DHT22;38120;53.176;6.614;2022-08-19T14:52:00;23.90;99.90
52127;DHT22;38120;53.176;6.614;2022-08-19T14:54:25;23.90;99.90
52127;DHT22;38120;53.176;6.614;2022-08-19T14:56:51;23.80;99.90
52127;DHT22;38120;53.176;6.614;2022-08-19T14:59:18;23.80;99.90
52127;DHT22;38120;53.176;6.614;2022-08-19T15:01:43;23.90;99.90
52127;DHT22;38120;53.176;6.614;2022-08-19T15:04:09;23.80;99.90
52127;DHT22;38120;53.176;6.614;2022-08-19T15:06:35;23.90;99.90
52127;DHT22;38120;53.176;6.614;2022-08-19T15:09:00;24.00;99.90
52127;DHT22;38120;53.176;6.614;2022-08-19T15:11:28;24.00;99.90
52127;DHT22;38120;53.176;6.614;2022-08-19T15:13:55;24.10;99.90
52127;DHT22;38120;53.176;6.614;2022-08-19T15:16:22;24.40;99.90
52127;DHT22;38120;53.176;6.614;2022-08-19T15:18:50;24.60;99.90
52127;DHT22;38120;53.176;6.614;2022-08-19T15:21:17;24.60;99.90
52127;DHT22;38120;53.176;6.614;2022-08-19T15:23:44;24.50;99.90
52127;DHT22;38120;53.176;6.614;2022-08-19T15:26:11;24.40;99.90
52127;DHT22;38120;53.176;6.614;2022-08-19T15:28:37;24.40;99.90
52127;DHT22;38120;53.176;6.614;2022-08-19T15:31:03;24.30;99.90
52127;DHT22;38120;53.176;6.614;2022-08-19T15:33:33;24.30;99.90
52127;DHT22;38120;53.176;6.614;2022-08-19T15:36:03;24.20;99.90
52127;DHT22;38120;53.176;6.614;2022-08-19T15:38:30;24.20;99.90
52127;DHT22;38120;53.176;6.614;2022-08-19T15:40:55;24.20;99.90